createdAt,value
2018-04-13T12:34:08.603Z,28.37
2018-04-13T12:36:36.119Z,16.03
2018-04-13T12:39:03.663Z,16.07
2018-04-13T12:41:31.655Z,20.37
2018-04-13T12:43:59.191Z,17.20
2018-04-13T12:46:26.708Z,20.77
2018-04-13T12:48:55.022Z,27.07
2018-04-13T12:51:22.551Z,18.17
2018-04-13T12:53:50.095Z,21.67
2018-04-13T12:56:17.951Z,18.97
2018-04-13T12:58:45.490Z,22.70
2018-04-13T13:01:13.006Z,22.10
2018-04-13T13:03:41.414Z,19.33
2018-04-13T13:06:08.927Z,21.93
2018-04-13T13:08:36.632Z,23.30
2018-04-13T13:11:04.580Z,21.33
2018-04-13T13:13:32.126Z,24.20
2018-04-13T13:15:59.654Z,21.13
2018-04-13T13:18:27.187Z,24.60
2018-04-13T13:20:55.359Z,23.27
2018-04-13T13:23:22.891Z,20.73
2018-04-13T13:25:50.686Z,22.97
2018-04-13T13:28:18.227Z,23.27
2018-04-13T13:30:45.799Z,25.60
2018-04-13T13:33:13.393Z,27.10
2018-04-13T13:35:41.043Z,25.43
2018-04-13T13:38:09.717Z,26.27
2018-04-13T13:40:37.226Z,26.90
2018-04-13T13:43:04.768Z,24.73
2018-04-13T13:45:32.275Z,24.00
2018-04-13T13:47:59.895Z,27.70
2018-04-13T13:50:27.407Z,23.90
2018-04-13T13:52:54.959Z,27.73
2018-04-13T13:55:22.471Z,27.93
2018-04-13T13:57:50.062Z,29.43
2018-04-13T14:00:18.075Z,27.83
2018-04-13T14:02:45.679Z,29.87
2018-04-13T14:05:13.199Z,26.63
2018-04-13T14:07:40.739Z,27.80
2018-04-13T14:10:08.564Z,26.47
2018-04-13T14:12:36.094Z,27.50
2018-04-13T14:15:03.638Z,27.90
2018-04-13T14:17:31.691Z,25.17
2018-04-13T14:19:59.237Z,28.17
2018-04-13T14:22:27.035Z,27.63
2018-04-13T14:24:54.568Z,26.43
2018-04-13T14:27:22.843Z,26.27
2018-04-13T14:29:51.140Z,26.17
2018-04-13T14:32:18.655Z,25.20
2018-04-13T14:34:46.183Z,25.27
2018-04-13T14:37:13.695Z,22.77
2018-04-13T14:39:41.998Z,25.57
2018-04-13T14:42:09.515Z,26.33
2018-04-13T14:44:37.080Z,29.07
2018-04-13T14:47:04.583Z,27.03
2018-04-13T14:49:32.115Z,27.10
2018-04-13T14:51:59.930Z,25.67
2018-04-13T14:54:27.464Z,26.97
2018-04-13T14:56:55.889Z,28.90
2018-04-13T14:59:23.435Z,30.00
2018-04-13T15:01:50.951Z,25.53
2018-04-13T15:04:18.490Z,25.30
2018-04-13T15:06:46.007Z,26.60
2018-04-13T15:09:13.907Z,28.07
2018-04-13T15:11:41.420Z,26.57
2018-04-13T15:14:09.091Z,21.20
2018-04-13T15:16:36.782Z,25.53
2018-04-13T15:19:04.715Z,26.67
2018-04-13T15:21:32.226Z,26.03
2018-04-13T15:23:59.841Z,29.60
2018-04-13T15:26:27.520Z,30.17
2018-04-13T15:28:55.065Z,25.00
2018-04-13T15:31:22.590Z,26.20
2018-04-13T15:33:50.594Z,28.77
2018-04-13T15:36:18.750Z,25.60
2018-04-13T15:38:46.431Z,27.30
2018-04-13T15:41:14.362Z,27.10
2018-04-13T15:43:42.218Z,28.97
2018-04-13T15:46:09.727Z,24.83
2018-04-13T15:48:37.260Z,27.83
2018-04-13T15:51:05.257Z,27.23
2018-04-13T15:53:32.787Z,28.33
2018-04-13T15:56:00.683Z,29.17
2018-04-13T15:58:28.407Z,31.57
2018-04-13T16:00:56.124Z,32.20
2018-04-13T16:03:23.637Z,27.93
2018-04-13T16:05:51.547Z,33.97
2018-04-13T16:08:19.057Z,36.17
2018-04-13T16:10:47.180Z,36.37
2018-04-13T16:13:14.703Z,34.50
2018-04-13T16:15:43.004Z,36.73
2018-04-13T16:18:11.066Z,34.43
2018-04-13T16:20:38.598Z,33.63
2018-04-13T16:23:06.111Z,33.67
2018-04-13T16:25:33.790Z,34.40
2018-04-13T16:28:02.407Z,34.53
2018-04-13T16:30:29.939Z,36.63
2018-04-13T16:32:57.491Z,33.10
2018-04-13T16:35:25.130Z,31.33
2018-04-13T16:37:52.923Z,33.87
2018-04-13T16:40:20.626Z,32.87
2018-04-13T16:42:48.202Z,38.17
2018-04-13T16:45:15.835Z,33.60
2018-04-13T16:47:44.288Z,33.93
2018-04-13T16:50:11.829Z,32.37
2018-04-13T16:52:39.742Z,30.37
2018-04-13T16:55:07.282Z,35.50
2018-04-13T16:57:34.823Z,35.57
2018-04-13T17:00:02.795Z,33.77
2018-04-13T17:02:30.571Z,34.80
2018-04-13T17:04:58.223Z,30.73
2018-04-13T17:07:26.254Z,33.00
2018-04-13T17:09:53.890Z,30.00
2018-04-13T17:12:21.406Z,28.40
2018-04-13T17:14:49.075Z,33.37
2018-04-13T17:17:16.587Z,28.53
2018-04-13T17:19:44.123Z,29.70
2018-04-13T17:22:11.644Z,28.97
2018-04-13T17:24:39.183Z,33.77
2018-04-13T17:27:07.455Z,32.00
2018-04-13T17:29:35.737Z,33.70
2018-04-13T17:32:04.030Z,29.13
2018-04-13T17:34:31.551Z,32.33
2018-04-13T17:36:59.091Z,30.77
2018-04-13T17:39:26.611Z,31.30
2018-04-13T17:41:54.148Z,30.40
2018-04-13T17:44:22.442Z,32.10
2018-04-13T17:46:50.734Z,31.83
2018-04-13T17:49:18.291Z,26.53
2018-04-13T17:51:45.841Z,31.80
2018-04-13T17:54:14.118Z,32.67
2018-04-13T17:56:41.663Z,29.27
2018-04-13T17:59:09.188Z,31.03
2018-04-13T18:01:36.729Z,30.50
2018-04-13T18:04:04.246Z,31.87
2018-04-13T18:06:31.783Z,31.63
2018-04-13T18:08:59.303Z,31.23
2018-04-13T18:11:26.857Z,31.73
2018-04-13T18:13:54.374Z,32.50
2018-04-13T18:16:21.914Z,47.70
2018-04-13T18:18:49.455Z,32.40
2018-04-13T18:21:16.991Z,31.93
2018-04-13T18:23:44.538Z,34.63
2018-04-13T18:26:12.098Z,35.60
2018-04-13T18:28:39.623Z,38.50
2018-04-13T18:31:07.379Z,39.77
2018-04-13T18:33:34.914Z,35.43
2018-04-13T18:36:02.695Z,43.37
2018-04-13T18:38:31.825Z,40.10
2018-04-13T18:41:00.164Z,39.60
2018-04-13T18:43:28.452Z,45.00
2018-04-13T18:45:56.432Z,47.77
2018-04-13T18:48:24.032Z,42.87
2018-04-13T18:50:52.353Z,43.30
2018-04-13T18:53:19.930Z,45.07
2018-04-13T18:55:47.531Z,48.30
2018-04-13T18:58:15.921Z,45.73
2018-04-13T19:00:43.418Z,48.40
2018-04-13T19:03:10.964Z,47.40
2018-04-13T19:05:39.022Z,49.20
2018-04-13T19:08:06.545Z,44.27
2018-04-13T19:10:34.081Z,46.47
2018-04-13T19:13:01.645Z,45.13
2018-04-13T19:15:29.179Z,42.60
2018-04-13T19:18:00.455Z,48.67
2018-04-13T19:20:37.701Z,44.77
2018-04-13T19:23:06.199Z,49.03
2018-04-13T19:25:33.803Z,49.50
2018-04-13T19:28:04.338Z,45.13
2018-04-13T19:30:32.819Z,45.47
2018-04-13T19:33:00.492Z,44.97
2018-04-13T19:35:28.188Z,47.53
2018-04-13T19:37:55.748Z,47.40
2018-04-13T19:40:23.283Z,52.00
2018-04-13T19:42:51.845Z,46.70
2018-04-13T19:45:20.265Z,48.00
2018-04-13T19:47:48.273Z,52.63
2018-04-13T19:50:16.904Z,47.90
2018-04-13T19:52:44.895Z,51.47
2018-04-13T19:55:12.515Z,47.43
2018-04-13T19:57:40.063Z,47.77
2018-04-13T20:00:07.703Z,51.20
2018-04-13T20:02:35.252Z,48.80
2018-04-13T20:05:02.877Z,50.90
2018-04-13T20:07:31.188Z,50.63
2018-04-13T20:09:58.796Z,55.83
2018-04-13T20:12:26.420Z,51.97
2018-04-13T20:15:17.674Z,50.73
2018-04-13T20:17:45.931Z,54.53
2018-04-13T20:20:13.602Z,53.07
2018-04-13T20:22:41.143Z,58.67
2018-04-13T20:25:08.724Z,65.93
2018-04-13T20:27:36.275Z,69.63
2018-04-13T20:30:03.834Z,72.73
2018-04-13T20:32:31.449Z,74.27
2018-04-13T20:34:59.759Z,79.37
2018-04-13T20:37:27.346Z,81.33
2018-04-13T20:39:54.879Z,83.87
2018-04-13T20:42:22.479Z,80.13
2018-04-13T20:44:53.298Z,86.23
2018-04-13T20:47:20.840Z,84.30
2018-04-13T20:49:48.358Z,84.57
2018-04-13T20:52:16.701Z,83.70
2018-04-13T20:54:44.211Z,82.20
2018-04-13T20:57:16.306Z,84.93
2018-04-13T20:59:44.282Z,89.47
2018-04-13T21:02:11.841Z,85.73
2018-04-13T21:04:39.369Z,86.50
2018-04-13T21:07:10.592Z,84.57
2018-04-13T21:09:39.471Z,88.80
2018-04-13T21:12:07.789Z,81.10
2018-04-13T21:14:35.324Z,83.97
2018-04-13T21:17:03.752Z,85.93
2018-04-13T21:19:31.339Z,84.57
2018-04-13T21:21:59.023Z,84.20
2018-04-13T21:24:26.560Z,88.80
2018-04-13T21:26:54.163Z,87.00
2018-04-13T21:29:22.829Z,85.83
2018-04-13T21:31:50.379Z,87.37
2018-04-13T21:34:17.915Z,89.00
2018-04-13T21:36:45.433Z,87.70
2018-04-13T21:39:13.887Z,87.17
2018-04-13T21:41:41.356Z,95.90
2018-04-13T21:44:10.047Z,91.23
2018-04-13T21:46:38.080Z,92.23
2018-04-13T21:49:05.619Z,93.77
2018-04-13T21:51:33.155Z,89.73
2018-04-13T21:54:00.732Z,90.33
2018-04-13T21:56:28.307Z,90.13
2018-04-13T21:58:55.892Z,91.43
2018-04-13T22:01:23.430Z,93.07
2018-04-13T22:03:51.794Z,88.27
2018-04-13T22:06:19.326Z,92.70
2018-04-13T22:08:46.863Z,91.50
2018-04-13T22:11:14.375Z,92.17
2018-04-13T22:13:46.144Z,94.43
2018-04-13T22:16:13.674Z,92.87
2018-04-13T22:18:41.496Z,93.10
2018-04-13T22:21:09.016Z,86.23
2018-04-13T22:23:36.633Z,91.77
2018-04-13T22:26:04.166Z,100.17
2018-04-13T22:28:32.420Z,92.73
2018-04-13T22:30:59.951Z,91.13
2018-04-13T22:33:27.497Z,87.37
2018-04-13T22:35:55.027Z,91.53
2018-04-13T22:38:22.564Z,89.83
2018-04-13T22:40:50.151Z,93.50
2018-04-13T22:43:17.701Z,91.43
2018-04-13T22:45:45.244Z,95.23
2018-04-13T22:48:12.788Z,93.67
2018-04-13T22:50:40.491Z,95.97
2018-04-13T22:53:08.299Z,96.50
2018-04-13T22:55:35.823Z,95.13
2018-04-13T22:58:03.584Z,97.93
2018-04-13T23:00:31.109Z,102.33
2018-04-13T23:02:59.131Z,98.10
2018-04-13T23:05:26.704Z,97.90
2018-04-13T23:07:54.230Z,93.90
2018-04-13T23:10:21.800Z,100.77
2018-04-13T23:12:49.392Z,94.13
2018-04-13T23:15:17.721Z,112.32
2018-04-13T23:17:45.244Z,100.70
2018-04-13T23:20:13.547Z,101.97
2018-04-13T23:22:41.059Z,98.27
2018-04-13T23:25:08.599Z,98.03
2018-04-13T23:27:36.122Z,97.07
2018-04-13T23:30:03.669Z,99.77
2018-04-13T23:32:31.960Z,95.50
2018-04-13T23:34:59.501Z,95.37
2018-04-13T23:37:27.798Z,100.03
2018-04-13T23:39:55.364Z,105.77
2018-04-13T23:42:22.891Z,102.00
2018-04-13T23:44:51.221Z,98.17
2018-04-13T23:47:18.738Z,102.90
2018-04-13T23:49:47.038Z,109.47
2018-04-13T23:52:14.591Z,95.77
2018-04-13T23:54:42.149Z,106.07
2018-04-13T23:57:10.093Z,99.13
2018-04-13T23:59:37.719Z,100.50
